Latest Weather Observations for Bendigo

IDV60801

Issued at 8:31 am EST Sunday 5 July 2015 (issued every 30 minutes, with the page automatically refreshed every 10 minutes)

About weather observations | Map of weather stations | Latest weather observations for VIC | Other Formats
Station Details ID: 081123 Name: BENDIGO AIRPORT Lat: -36.74 Lon: 144.33 Height: 208.0 m
Data from the previous 72 hours. | See also: Recent months at Bendigo
Date/Time
EST
Temp
°C
App
Temp
°C
Dew
Point
Rel
Hum
%
Delta-T
°C
Wind Press
QNH
hPa
Press
MSL
hPa
Rain
since 9 am
mm
Dir
 
Spd
km/h
Gust
km/h
Spd
kts
Gust
kts
05/08:30am 4.4 2.8 2.4 87 0.8 CALM 0 0 0 0 1022.1 1022.5 0.0
05/08:00am 3.9 2.3 2.4 90 0.6 CALM 0 0 0 0 1022.1 1022.5 0.0
05/07:30am 3.2 1.5 1.7 90 0.6 CALM 0 0 0 0 1022.0 1022.4 0.0
05/07:00am 2.7 1.0 1.7 93 0.4 CALM 0 0 0 0 1021.9 1022.3 0.0
05/06:30am 1.6 -0.3 0.7 94 0.3 CALM 0 0 0 0 1021.6 1022.1 0.0
05/06:00am 0.6 -1.4 -0.4 93 0.4 CALM 0 0 0 0 1021.4 1021.9 0.0
05/05:30am 0.9 -1.1 0.0 94 0.3 CALM 0 0 0 0 1021.6 1022.1 0.0
05/05:00am 0.6 -1.4 -0.3 94 0.3 CALM 0 0 0 0 1021.6 1022.1 0.0
05/04:30am 0.1 -2.0 -0.9 93 0.4 CALM 0 0 0 0 1021.5 1022.0 0.0
05/04:00am 0.3 -1.8 -1.0 91 0.5 CALM 0 0 0 0 1021.5 1022.0 0.0
05/03:30am 1.1 -1.0 -0.7 88 0.6 CALM 0 0 0 0 1021.7 1022.2 0.0
05/03:00am 2.1 0.2 0.5 89 0.6 CALM 0 0 0 0 1021.9 1022.3 0.0
05/02:30am 3.9 2.2 1.9 87 0.8 CALM 0 0 0 0 1022.0 1022.4 0.0
05/02:00am 4.7 3.1 2.6 86 0.9 CALM 0 0 0 0 1022.1 1022.5 0.0
05/01:30am 5.6 4.0 2.6 81 1.2 CALM 0 0 0 0 1022.1 1022.5 0.0
05/01:00am 5.4 3.9 2.8 83 1.1 CALM 0 0 0 0 1022.3 1022.7 0.0
05/12:30am 5.5 4.0 2.8 83 1.1 CALM 0 0 0 0 1022.4 1022.8 0.0
05/12:00am 5.8 4.2 2.6 80 1.3 CALM 0 6 0 3 1022.3 1022.7 0.0
 
Date/Time
EST
Temp
°C
App
Temp
°C
Dew
Point
Rel
Hum
%
Delta-T
°C
Wind Press
QNH
hPa
Press
MSL
hPa
Rain
since 9 am
mm
Dir
 
Spd
km/h
Gust
km/h
Spd
kts
Gust
kts
04/11:30pm 5.3 3.8 2.8 84 1.0 CALM 0 0 0 0 1022.7 1023.1 0.0
04/11:00pm 5.6 4.0 2.6 81 1.2 CALM 0 0 0 0 1022.6 1023.0 0.0
04/10:30pm 5.2 3.6 2.6 83 1.1 CALM 0 0 0 0 1022.6 1023.0 0.0
04/10:00pm 5.1 3.6 2.8 85 0.9 CALM 0 0 0 0 1022.8 1023.2 0.0
04/09:30pm 4.4 2.7 1.9 84 1.0 CALM 0 0 0 0 1023.0 1023.4 0.0
04/09:00pm 3.8 2.1 1.7 86 0.8 CALM 0 0 0 0 1022.9 1023.3 0.0
04/08:30pm 4.3 2.5 1.5 82 1.1 CALM 0 0 0 0 1022.9 1023.3 0.0
04/08:00pm 4.3 2.6 1.7 83 1.0 CALM 0 0 0 0 1023.0 1023.4 0.0
04/07:30pm 4.3 2.5 1.5 82 1.1 CALM 0 0 0 0 1022.9 1023.3 0.0
04/07:00pm 5.3 3.6 2.0 79 1.3 CALM 0 0 0 0 1022.8 1023.2 0.0
04/06:30pm 6.9 5.2 2.0 71 2.0 CALM 0 0 0 0 1022.6 1023.0 0.0
04/06:00pm 9.1 6.4 2.9 65 2.7 NNW 6 9 3 5 1022.3 1022.7 0.0
04/05:30pm 10.3 8.8 3.1 61 3.2 CALM 0 0 0 0 1022.2 1022.6 0.0
04/05:00pm 10.8 8.0 3.1 59 3.4 NNW 7 9 4 5 1022.2 1022.6 0.0
04/04:30pm 11.1 7.2 3.2 58 3.5 NNW 13 17 7 9 1022.3 1022.7 0.0
04/04:00pm 11.6 8.1 3.4 57 3.6 NW 11 15 6 8 1022.4 1022.8 0.0
04/03:30pm 11.5 7.6 3.3 57 3.6 NW 13 20 7 11 1022.4 1022.8 0.0
04/03:00pm 11.3 6.6 3.1 57 3.6 NW 17 24 9 13 1022.2 1022.6 0.0
04/02:30pm 11.6 7.3 3.1 56 3.8 WNW 15 26 8 14 1022.3 1022.7 0.0
04/02:00pm 11.6 6.9 3.4 57 3.6 NW 17 24 9 13 1022.6 1023.0 0.0
04/01:30pm 11.1 6.7 2.7 56 3.7 NW 15 20 8 11 1022.9 1023.3 0.0
04/01:00pm 10.4 5.5 2.0 56 3.6 WNW 17 24 9 13 1023.2 1023.7 0.0
04/12:30pm 10.7 5.4 1.8 54 3.8 NW 19 26 10 14 1023.6 1024.1 0.0
04/12:00pm 10.4 5.1 1.8 55 3.6 NW 19 26 10 14 1024.0 1024.5 0.0
04/11:30am 10.1 5.4 1.2 54 3.7 NW 15 22 8 12 1024.4 1024.9 0.0
04/11:00am 9.2 4.9 1.1 57 3.3 NW 13 20 7 11 1024.6 1025.1 0.0
04/10:30am 8.2 3.5 1.1 61 2.9 NW 15 19 8 10 1024.7 1025.2 0.0
04/10:00am 6.9 3.0 1.4 68 2.2 NNW 11 15 6 8 1024.7 1025.2 0.0
04/09:30am 6.7 3.2 1.4 69 2.2 NW 9 15 5 8 1024.8 1025.3 0.0
04/09:00am 5.5 2.6 1.2 74 1.7 WSW 6 7 3 4 1024.8 1025.3 0.0
04/08:30am 4.4 2.7 1.6 82 1.1 CALM 0 0 0 0 1024.4 1024.9 0.0
04/08:00am 3.9 2.2 1.6 85 0.9 CALM 0 0 0 0 1024.4 1024.9 0.0
04/07:30am 3.7 2.0 1.6 86 0.8 CALM 0 0 0 0 1024.3 1024.8 0.0
04/07:00am 2.7 0.5 0.9 88 0.7 NE 2 7 1 4 1024.1 1024.6 0.0
04/06:30am 3.7 1.9 1.3 84 0.9 CALM 0 0 0 0 1023.9 1024.4 0.0
04/06:00am 4.2 2.4 1.4 82 1.1 CALM 0 0 0 0 1023.8 1024.3 0.0
04/05:30am 4.1 2.4 2.0 86 0.8 CALM 0 0 0 0 1023.8 1024.3 0.0
04/05:00am 4.1 2.3 1.5 83 1.0 CALM 0 0 0 0 1023.7 1024.2 0.0
04/04:30am 4.5 2.7 1.2 79 1.3 CALM 0 0 0 0 1023.7 1024.2 0.0
04/04:00am 4.5 2.8 1.9 83 1.0 CALM 0 0 0 0 1023.9 1024.4 0.0
04/03:30am 4.3 2.6 1.7 83 1.0 CALM 0 0 0 0 1023.9 1024.4 0.0
04/03:00am 4.1 2.3 1.5 83 1.0 CALM 0 0 0 0 1024.1 1024.6 0.0
04/02:30am 4.0 2.2 1.4 83 1.0 CALM 0 0 0 0 1024.1 1024.6 0.0
04/02:00am 3.7 1.9 1.1 83 1.0 CALM 0 0 0 0 1024.3 1024.8 0.0
04/01:30am 3.4 1.6 1.1 85 0.9 CALM 0 0 0 0 1024.4 1024.9 0.0
04/01:00am 3.0 1.2 0.9 86 0.8 CALM 0 0 0 0 1024.7 1025.2 0.0
04/12:30am 2.3 0.3 0.2 86 0.8 CALM 0 0 0 0 1024.9 1025.4 0.0
04/12:00am 1.8 -0.2 0.0 88 0.7 CALM 0 0 0 0 1025.3 1025.8 0.0
 
Date/Time
EST
Temp
°C
App
Temp
°C
Dew
Point
Rel
Hum
%
Delta-T
°C
Wind Press
QNH
hPa
Press
MSL
hPa
Rain
since 9 am
mm
Dir
 
Spd
km/h
Gust
km/h
Spd
kts
Gust
kts
03/11:30pm 1.8 -0.2 -0.3 86 0.8 CALM 0 0 0 0 1025.3 1025.8 0.0
03/11:00pm 1.6 -0.5 -0.6 85 0.8 CALM 0 0 0 0 1025.6 1026.1 0.0
03/10:30pm 2.3 0.3 0.0 85 0.9 CALM 0 0 0 0 1025.7 1026.2 0.0
03/10:00pm 2.4 0.4 0.0 84 0.9 CALM 0 0 0 0 1025.9 1026.4 0.0
03/09:30pm 2.8 0.9 0.4 84 0.9 CALM 0 0 0 0 1025.9 1026.4 0.0
03/09:00pm 2.5 0.5 0.1 84 0.9 CALM 0 0 0 0 1025.9 1026.4 0.0
03/08:30pm 2.7 0.7 0.1 83 1.0 CALM 0 0 0 0 1025.7 1026.2 0.0
03/08:00pm 3.4 1.4 -0.1 78 1.3 CALM 0 0 0 0 1026.0 1026.5 0.0
03/07:30pm 4.6 2.7 0.4 74 1.6 CALM 0 0 0 0 1026.1 1026.6 0.0
03/07:00pm 4.6 2.7 0.6 75 1.5 CALM 0 0 0 0 1026.1 1026.6 0.0
03/06:30pm 4.4 2.4 0.0 73 1.7 CALM 0 0 0 0 1026.1 1026.6 0.0
03/06:00pm 6.1 3.0 0.0 65 2.4 WNW 6 7 3 4 1026.1 1026.6 0.0
03/05:30pm 7.4 4.3 -0.1 59 3.0 WNW 6 7 3 4 1025.8 1026.3 0.0
03/05:00pm 8.4 4.3 -0.1 55 3.4 WNW 11 17 6 9 1025.8 1026.3 0.0
03/04:30pm 9.2 6.8 -0.1 52 3.7 WNW 2 7 1 4 1025.7 1026.2 0.0
03/04:00pm 9.5 6.4 0.1 52 3.8 WSW 6 13 3 7 1026.0 1026.5 0.0
03/03:30pm 9.4 6.2 0.6 54 3.6 WSW 7 11 4 6 1026.3 1026.8 0.0
03/03:00pm 9.5 4.3 0.1 52 3.8 W 17 26 9 14 1026.2 1026.7 0.0
03/02:30pm 9.3 4.0 -0.3 51 3.8 W 17 22 9 12 1026.3 1026.8 0.0
03/02:00pm 10.9 5.7 0.3 48 4.4 NW 17 24 9 13 1026.4 1026.9 0.0
03/01:30pm 10.7 5.0 -0.4 46 4.5 WNW 19 26 10 14 1026.6 1027.1 0.0
03/01:00pm 10.6 7.6 0.9 51 4.0 WSW 6 20 3 11 1026.8 1027.3 0.0
03/12:30pm 9.8 6.7 0.2 51 3.9 WSW 6 19 3 10 1027.4 1027.9 0.0
03/12:00pm 10.0 6.5 1.1 54 3.7 NW 9 15 5 8 1027.8 1028.3 0.0
03/11:30am 9.1 5.9 1.0 57 3.3 WSW 7 15 4 8 1028.3 1028.8 0.0
03/11:00am 9.1 5.3 1.5 59 3.1 SW 11 17 6 9 1028.6 1029.1 0.0
03/10:30am 9.2 7.7 2.8 64 2.8 CALM 0 2 0 1 1028.7 1029.2 0.0
03/10:00am 7.3 5.7 2.6 72 2.0 CALM 0 4 0 2 1028.9 1029.4 0.0
03/09:30am 4.8 3.2 2.2 83 1.1 CALM 0 0 0 0 1029.0 1029.5 0.0
03/09:00am 1.1 -0.9 0.2 94 0.3 CALM 0 0 0 0 1028.9 1029.4 0.4
03/08:30am -1.5 -3.8 -2.3 94 0.2 CALM 0 0 0 0 1029.0 1029.5 0.4
03/08:00am -2.8 -5.3 -3.8 93 0.2 CALM 0 0 0 0 1028.6 1029.1 0.4
03/07:30am -3.4 -5.9 -4.4 93 0.2 CALM 0 0 0 0 1028.3 1028.8 0.4
03/07:00am -2.3 -4.7 -3.0 95 0.1 CALM 0 0 0 0 1028.2 1028.7 0.4
03/06:30am -2.3 -4.7 -3.1 94 0.2 CALM 0 0 0 0 1028.1 1028.6 0.4
03/06:00am -1.8 -4.1 -2.4 96 0.1 CALM 0 0 0 0 1027.9 1028.4 0.4
03/05:30am -2.3 -4.7 -3.1 94 0.2 CALM 0 0 0 0 1027.7 1028.2 0.4
03/05:06am -1.8 -4.1 -2.6 94 0.2 CALM 0 0 0 0 1027.7 1028.2 0.4
03/05:00am -2.3 -4.7 -3.4 92 0.3 CALM 0 0 0 0 1027.7 1028.2 0.4
03/04:52am -1.6 -3.9 -2.3 95 0.2 CALM 0 0 0 0 1027.7 1028.2 0.4
03/04:30am -1.3 -3.6 -2.1 94 0.2 CALM 0 0 0 0 1027.7 1028.2 0.4
03/04:00am -1.0 -3.2 -1.8 94 0.2 CALM 0 0 0 0 1027.7 1028.2 0.4
03/03:30am -0.9 -3.1 -1.9 93 0.3 CALM 0 0 0 0 1027.8 1028.3 0.4
03/03:00am -0.2 -2.4 -1.5 91 0.4 CALM 0 0 0 0 1028.2 1028.7 0.4
03/02:30am 1.1 -2.2 0.1 93 0.4 S 7 13 4 7 1028.3 1028.8 0.4
03/02:00am -0.2 -2.8 -1.6 90 0.5 SW 2 7 1 4 1028.3 1028.8 0.4
03/01:30am 1.4 -0.6 -0.1 90 0.6 CALM 0 0 0 0 1028.0 1028.5 0.4
03/01:00am 3.1 -0.4 1.2 87 0.7 SSW 9 13 5 7 1028.1 1028.6 0.4
03/12:30am 1.9 -1.3 -0.2 86 0.8 S 6 7 3 4 1028.4 1028.9 0.4
03/12:00am 3.3 -0.6 1.2 86 0.8 SW 11 15 6 8 1028.8 1029.3 0.4
 
Date/Time
EST
Temp
°C
App
Temp
°C
Dew
Point
Rel
Hum
%
Delta-T
°C
Wind Press
QNH
hPa
Press
MSL
hPa
Rain
since 9 am
mm
Dir
 
Spd
km/h
Gust
km/h
Spd
kts
Gust
kts
02/11:30pm 3.1 -1.2 1.0 86 0.8 SW 13 17 7 9 1028.7 1029.2 0.4
02/11:00pm 3.3 -0.2 1.0 85 0.9 SW 9 13 5 7 1028.6 1029.1 0.4
02/10:30pm 4.2 0.7 1.4 82 1.1 SW 9 13 5 7 1028.7 1029.2 0.4
02/10:00pm 0.3 -2.6 -1.1 90 0.5 WSW 4 9 2 5 1028.7 1029.2 0.4
02/09:30pm 0.6 -2.7 -1.5 86 0.8 WSW 6 7 3 4 1028.6 1029.1 0.4
02/09:00pm 1.3 -0.7 -0.2 90 0.5 CALM 0 6 0 3 1028.6 1029.1 0.4
02/08:30pm 0.6 -1.6 -1.8 84 0.9 CALM 0 0 0 0 1028.4 1028.9 0.4
02/08:00pm 2.5 0.5 -0.3 82 1.0 CALM 0 0 0 0 1028.3 1028.8 0.4
02/07:30pm 3.5 1.5 -0.1 77 1.4 CALM 0 0 0 0 1027.8 1028.3 0.4
02/07:00pm 5.8 3.5 0.6 69 2.0 SSW 2 7 1 4 1027.4 1027.9 0.4
02/06:30pm 6.7 3.1 0.6 65 2.4 SSW 9 13 5 7 1027.1 1027.5 0.4
02/06:00pm 7.7 4.4 0.2 59 3.0 SW 7 13 4 7 1026.7 1027.2 0.4
02/05:30pm 8.4 4.3 0.1 56 3.3 SW 11 19 6 10 1026.4 1026.9 0.4
02/05:00pm 9.5 4.3 -0.1 51 3.8 SW 17 24 9 13 1025.8 1026.3 0.4
02/04:30pm 10.3 4.8 0.3 50 4.1 SW 19 32 10 17 1025.5 1026.0 0.4
02/04:00pm 10.1 4.3 -0.4 48 4.2 SW 20 33 11 18 1025.2 1025.7 0.4
02/03:30pm 10.9 4.7 0.0 47 4.5 SSW 22 35 12 19 1025.1 1025.6 0.4
02/03:00pm 11.1 4.3 0.8 49 4.3 SSW 26 37 14 20 1024.4 1024.9 0.4
02/02:30pm 11.6 6.1 0.4 46 4.7 S 19 37 10 20 1024.2 1024.7 0.4
02/02:00pm 11.0 3.7 0.1 47 4.5 SSW 28 43 15 23 1023.8 1024.3 0.4
02/01:30pm 10.9 3.8 1.2 51 4.1 SW 28 39 15 21 1023.8 1024.3 0.4
02/01:00pm 10.8 5.0 2.1 55 3.7 SSW 22 35 12 19 1023.8 1024.3 0.4
02/12:30pm 10.7 5.0 3.0 59 3.4 SSW 22 32 12 17 1023.7 1024.2 0.4
02/12:00pm 9.7 4.6 3.9 67 2.6 SW 20 35 11 19 1023.6 1024.1 0.2
02/11:30am 9.2 5.5 4.2 71 2.2 SW 13 28 7 15 1023.9 1024.4 0.2
02/11:00am 8.7 1.8 4.7 76 1.8 SW 30 57 16 31 1024.0 1024.5 0.2
02/10:32am 10.3 3.3 4.2 66 2.7 SW 30 48 16 26 1023.4 1023.9 0.0
02/10:30am 10.3 2.9 4.0 65 2.8 SW 32 48 17 26 1023.4 1023.9 0.0
02/10:00am 10.7 4.9 4.6 66 2.8 WSW 24 32 13 17 1023.0 1023.4 0.0
02/09:30am 9.9 6.1 5.7 75 1.9 WSW 15 20 8 11 1022.8 1023.2 0.0
02/09:00am 8.8 5.9 6.4 85 1.1 W 11 17 6 9 1022.8 1023.2 0.2

Other Formats:

Comma delimited format used in spreadsheet applications
http://www.bom.gov.au/fwo/IDV60801/IDV60801.94855.axf

JavaScript Object Notation format (JSON) in row-major order
http://www.bom.gov.au/fwo/IDV60801/IDV60801.94855.json